Time,TemperatureF,DewpointF,PressureIn,WindDirection,WindDirectionDegrees,WindSpeedMPH,WindSpeedGustMPH,Humidity,HourlyPrecipIn,Conditions,Clouds,dailyrainin,SoftwareType,DateUTC
2013-03-26 00:04:00,34.4,33.3,29.65,WSW,239,1.0,3.0,96,0.00,,,0.00,WUHU216DAVISVP2,2013-03-26 04:04:00,
2013-03-26 00:09:00,34.4,33.3,29.66,SW,228,2.0,3.0,96,0.00,,,0.00,WUHU216DAVISVP2,2013-03-26 04:09:00,
2013-03-26 00:14:00,34.4,33.3,29.66,WSW,252,1.0,3.0,96,0.00,,,0.00,WUHU216DAVISVP2,2013-03-26 04:14:00,
2013-03-26 00:19:00,34.3,33.2,29.66,SW,233,0.0,4.0,96,0.00,,,0.00,WUHU216DAVISVP2,2013-03-26 04:19:00,
2013-03-26 00:24:00,34.3,33.2,29.66,SW,233,0.0,4.0,96,0.00,,,0.00,WUHU216DAVISVP2,2013-03-26 04:24:00,
2013-03-26 00:29:00,34.2,33.1,29.67,SW,233,0.0,4.0,96,0.00,,,0.00,WUHU216DAVISVP2,2013-03-26 04:29:00,
2013-03-26 00:34:00,34.2,33.2,29.67,SW,233,0.0,4.0,96,0.00,,,0.00,WUHU216DAVISVP2,2013-03-26 04:34:00,
2013-03-26 00:39:00,34.2,33.1,29.67,WSW,239,0.0,2.0,96,0.00,,,0.00,WUHU216DAVISVP2,2013-03-26 04:39:00,
2013-03-26 00:44:00,34.2,33.1,29.67,WSW,239,0.0,2.0,96,0.00,,,0.00,WUHU216DAVISVP2,2013-03-26 04:44:00,
2013-03-26 00:49:00,34.2,33.2,29.67,WSW,239,0.0,2.0,96,0.00,,,0.00,WUHU216DAVISVP2,2013-03-26 04:49:00,
2013-03-26 00:54:00,34.2,33.2,29.67,WSW,239,1.0,2.0,96,0.00,,,0.00,WUHU216DAVISVP2,2013-03-26 04:54:00,
2013-03-26 00:59:00,34.1,33.0,29.67,WSW,239,0.0,2.0,96,0.00,,,0.00,WUHU216DAVISVP2,2013-03-26 04:59:00,
2013-03-26 01:04:00,34.0,32.9,29.67,WSW,239,1.0,2.0,96,0.00,,,0.00,WUHU216DAVISVP2,2013-03-26 05:04:00,
2013-03-26 01:09:00,33.9,32.8,29.68,WSW,239,0.0,2.0,96,0.00,,,0.00,WUHU216DAVISVP2,2013-03-26 05:09:00,
2013-03-26 01:14:00,33.9,32.9,29.68,WSW,239,1.0,2.0,96,0.00,,,0.00,WUHU216DAVISVP2,2013-03-26 05:14:00,
2013-03-26 01:19:00,33.9,32.9,29.68,WSW,239,1.0,2.0,96,0.00,,,0.00,WUHU216DAVISVP2,2013-03-26 05:19:00,
2013-03-26 01:24:00,33.9,32.8,29.68,WSW,239,0.0,2.0,96,0.00,,,0.00,WUHU216DAVISVP2,2013-03-26 05:24:00,
2013-03-26 01:29:00,33.9,32.8,29.68,WSW,239,0.0,3.0,96,0.00,,,0.00,WUHU216DAVISVP2,2013-03-26 05:29:00,
2013-03-26 01:34:00,33.9,32.8,29.68,WSW,239,0.0,3.0,96,0.00,,,0.00,WUHU216DAVISVP2,2013-03-26 05:34:00,
2013-03-26 01:39:00,33.9,32.8,29.69,WSW,239,1.0,3.0,96,0.00,,,0.00,WUHU216DAVISVP2,2013-03-26 05:39:00,
2013-03-26 01:44:00,33.9,32.9,29.69,WSW,239,1.0,3.0,96,0.01,,,0.01,WUHU216DAVISVP2,2013-03-26 05:44:00,
2013-03-26 01:49:00,34.0,33.0,29.69,WSW,239,1.0,3.0,96,0.01,,,0.01,WUHU216DAVISVP2,2013-03-26 05:49:00,
2013-03-26 01:54:00,34.1,33.0,29.69,WSW,238,0.0,3.0,96,0.01,,,0.01,WUHU216DAVISVP2,2013-03-26 05:54:00,
2013-03-26 01:59:00,34.1,33.0,29.69,WSW,253,0.0,3.0,96,0.01,,,0.01,WUHU216DAVISVP2,2013-03-26 05:59:00,
2013-03-26 02:04:00,34.2,33.1,29.69,WSW,254,1.0,4.0,96,0.01,,,0.01,WUHU216DAVISVP2,2013-03-26 06:04:00,
2013-03-26 02:09:00,34.2,33.1,29.70,WNW,300,3.0,5.0,96,0.01,,,0.01,WUHU216DAVISVP2,2013-03-26 06:09:00,
2013-03-26 02:14:00,34.3,33.2,29.70,WNW,297,1.0,5.0,96,0.01,,,0.01,WUHU216DAVISVP2,2013-03-26 06:14:00,
2013-03-26 02:19:00,34.3,33.2,29.70,West,278,0.0,7.0,96,0.01,,,0.01,WUHU216DAVISVP2,2013-03-26 06:19:00,
2013-03-26 02:24:00,34.3,33.3,29.70,West,276,0.0,7.0,96,0.01,,,0.01,WUHU216DAVISVP2,2013-03-26 06:24:00,
2013-03-26 02:29:00,34.4,33.4,29.70,WSW,258,3.0,7.0,96,0.01,,,0.01,WUHU216DAVISVP2,2013-03-26 06:29:00,
2013-03-26 02:34:00,34.4,33.4,29.70,NW,308,1.0,4.0,96,0.01,,,0.01,WUHU216DAVISVP2,2013-03-26 06:34:00,
2013-03-26 02:39:00,34.4,33.3,29.70,WSW,247,1.0,4.0,96,0.01,,,0.01,WUHU216DAVISVP2,2013-03-26 06:39:00,
2013-03-26 02:44:00,34.4,33.3,29.70,West,270,2.0,4.0,96,0.00,,,0.01,WUHU216DAVISVP2,2013-03-26 06:44:00,
2013-03-26 02:49:00,34.5,33.4,29.70,WSW,239,2.0,4.0,96,0.00,,,0.01,WUHU216DAVISVP2,2013-03-26 06:49:00,
2013-03-26 02:54:00,34.5,33.4,29.70,WSW,237,2.0,4.0,96,0.00,,,0.01,WUHU216DAVISVP2,2013-03-26 06:54:00,
2013-03-26 02:59:00,34.5,33.4,29.70,West,276,0.0,4.0,96,0.00,,,0.01,WUHU216DAVISVP2,2013-03-26 06:59:00,
2013-03-26 03:04:00,34.5,33.4,29.71,WSW,238,1.0,3.0,96,0.00,,,0.01,WUHU216DAVISVP2,2013-03-26 07:04:00,
2013-03-26 03:09:00,34.6,33.5,29.71,WSW,245,3.0,4.0,96,0.00,,,0.01,WUHU216DAVISVP2,2013-03-26 07:09:00,
2013-03-26 03:14:00,34.6,33.5,29.71,West,278,0.0,4.0,96,0.00,,,0.01,WUHU216DAVISVP2,2013-03-26 07:14:00,
2013-03-26 03:19:00,34.6,33.5,29.71,West,262,1.0,4.0,96,0.00,,,0.01,WUHU216DAVISVP2,2013-03-26 07:19:00,
2013-03-26 03:24:00,34.7,33.6,29.71,WSW,245,0.0,3.0,96,0.00,,,0.01,WUHU216DAVISVP2,2013-03-26 07:24:00,
2013-03-26 03:29:00,34.7,33.6,29.71,WSW,243,2.0,3.0,96,0.00,,,0.01,WUHU216DAVISVP2,2013-03-26 07:29:00,
2013-03-26 03:34:00,34.7,33.6,29.71,SW,236,1.0,4.0,96,0.00,,,0.01,WUHU216DAVISVP2,2013-03-26 07:34:00,
2013-03-26 03:39:00,34.7,33.6,29.71,WNW,285,2.0,4.0,96,0.00,,,0.01,WUHU216DAVISVP2,2013-03-26 07:39:00,
2013-03-26 03:44:00,34.7,33.6,29.71,WSW,241,1.0,4.0,96,0.00,,,0.01,WUHU216DAVISVP2,2013-03-26 07:44:00,
2013-03-26 03:49:00,34.7,33.6,29.71,WSW,241,2.0,4.0,96,0.00,,,0.01,WUHU216DAVISVP2,2013-03-26 07:49:00,
2013-03-26 03:54:00,34.7,33.6,29.71,SW,236,0.0,4.0,96,0.00,,,0.01,WUHU216DAVISVP2,2013-03-26 07:54:00,
2013-03-26 03:59:00,34.7,33.6,29.71,WSW,256,0.0,3.0,96,0.00,,,0.01,WUHU216DAVISVP2,2013-03-26 07:59:00,
2013-03-26 04:05:00,34.7,33.6,29.71,WSW,256,1.0,3.0,96,0.00,,,0.01,WUHU216DAVISVP2,2013-03-26 08:05:00,
2013-03-26 04:10:00,34.7,33.6,29.71,WSW,256,0.0,3.0,96,0.00,,,0.01,WUHU216DAVISVP2,2013-03-26 08:10:00,
2013-03-26 04:15:00,34.6,33.3,29.71,WSW,256,1.0,3.0,95,0.00,,,0.01,WUHU216DAVISVP2,2013-03-26 08:15:00,
2013-03-26 04:20:00,34.6,33.3,29.71,WSW,258,1.0,3.0,95,0.00,,,0.01,WUHU216DAVISVP2,2013-03-26 08:20:00,
2013-03-26 04:25:00,34.6,33.3,29.71,WNW,291,2.0,3.0,95,0.00,,,0.01,WUHU216DAVISVP2,2013-03-26 08:25:00,
2013-03-26 04:30:00,34.6,33.5,29.71,West,274,0.0,3.0,96,0.00,,,0.01,WUHU216DAVISVP2,2013-03-26 08:30:00,
2013-03-26 04:35:00,34.4,33.1,29.72,West,274,0.0,3.0,95,0.00,,,0.01,WUHU216DAVISVP2,2013-03-26 08:35:00,
2013-03-26 04:40:00,34.4,33.1,29.72,West,273,1.0,3.0,95,0.00,,,0.01,WUHU216DAVISVP2,2013-03-26 08:40:00,
2013-03-26 04:45:00,34.4,33.3,29.72,West,264,0.0,3.0,96,0.00,,,0.01,WUHU216DAVISVP2,2013-03-26 08:45:00,
2013-03-26 04:50:00,34.4,33.3,29.72,West,264,1.0,3.0,96,0.00,,,0.01,WUHU216DAVISVP2,2013-03-26 08:50:00,
2013-03-26 04:55:00,34.3,33.2,29.72,West,264,0.0,3.0,96,0.00,,,0.01,WUHU216DAVISVP2,2013-03-26 08:55:00,
2013-03-26 05:00:00,34.3,33.0,29.72,West,266,0.0,3.0,95,0.00,,,0.01,WUHU216DAVISVP2,2013-03-26 09:00:00,
2013-03-26 05:05:00,34.2,33.1,29.72,West,266,2.0,2.0,96,0.00,,,0.01,WUHU216DAVISVP2,2013-03-26 09:05:00,
2013-03-26 05:10:00,34.1,33.0,29.73,West,266,0.0,2.0,96,0.00,,,0.01,WUHU216DAVISVP2,2013-03-26 09:10:00,
2013-03-26 05:15:00,34.1,32.8,29.73,West,266,0.0,2.0,95,0.00,,,0.01,WUHU216DAVISVP2,2013-03-26 09:15:00,
2013-03-26 05:20:00,34.1,32.8,29.73,West,266,0.0,2.0,95,0.00,,,0.01,WUHU216DAVISVP2,2013-03-26 09:20:00,
2013-03-26 05:25:00,34.0,32.7,29.73,West,266,1.0,2.0,95,0.00,,,0.01,WUHU216DAVISVP2,2013-03-26 09:25:00,
2013-03-26 05:30:00,34.0,32.7,29.73,West,266,0.0,2.0,95,0.00,,,0.01,WUHU216DAVISVP2,2013-03-26 09:30:00,
2013-03-26 05:35:00,33.9,32.8,29.73,West,266,0.0,2.0,96,0.00,,,0.01,WUHU216DAVISVP2,2013-03-26 09:35:00,
2013-03-26 05:40:00,33.8,32.7,29.74,West,266,0.0,2.0,96,0.00,,,0.01,WUHU216DAVISVP2,2013-03-26 09:40:00,
2013-03-26 05:45:00,33.8,32.7,29.74,West,266,1.0,2.0,96,0.00,,,0.01,WUHU216DAVISVP2,2013-03-26 09:45:00,
2013-03-26 05:50:00,33.8,32.7,29.74,West,266,1.0,2.0,96,0.00,,,0.01,WUHU216DAVISVP2,2013-03-26 09:50:00,
2013-03-26 05:55:00,33.8,32.7,29.74,West,266,0.0,2.0,96,0.00,,,0.01,WUHU216DAVISVP2,2013-03-26 09:55:00,
2013-03-26 06:00:00,33.7,32.6,29.74,West,266,0.0,2.0,96,0.00,,,0.01,WUHU216DAVISVP2,2013-03-26 10:00:00,
2013-03-26 06:05:00,33.7,32.6,29.74,WSW,238,1.0,2.0,96,0.00,,,0.01,WUHU216DAVISVP2,2013-03-26 10:05:00,
2013-03-26 06:10:00,33.7,32.6,29.75,WSW,238,1.0,2.0,96,0.01,,,0.02,WUHU216DAVISVP2,2013-03-26 10:10:00,
2013-03-26 06:15:00,33.6,32.3,29.75,WSW,238,0.0,2.0,95,0.01,,,0.02,WUHU216DAVISVP2,2013-03-26 10:15:00,
2013-03-26 06:20:00,33.5,32.2,29.75,WSW,238,0.0,2.0,95,0.01,,,0.02,WUHU216DAVISVP2,2013-03-26 10:20:00,
2013-03-26 06:25:00,33.4,32.1,29.75,WSW,238,1.0,2.0,95,0.01,,,0.02,WUHU216DAVISVP2,2013-03-26 10:25:00,
2013-03-26 06:30:00,33.3,32.0,29.75,WSW,238,0.0,2.0,95,0.01,,,0.02,WUHU216DAVISVP2,2013-03-26 10:30:00,
2013-03-26 06:35:00,33.3,32.0,29.76,WSW,238,1.0,2.0,95,0.01,,,0.02,WUHU216DAVISVP2,2013-03-26 10:35:00,
2013-03-26 06:40:00,33.2,31.9,29.76,WSW,238,1.0,2.0,95,0.01,,,0.02,WUHU216DAVISVP2,2013-03-26 10:40:00,
2013-03-26 06:45:00,33.2,32.1,29.76,WSW,238,1.0,3.0,96,0.01,,,0.02,WUHU216DAVISVP2,2013-03-26 10:45:00,
2013-03-26 06:50:00,33.0,31.7,29.76,WSW,238,0.0,3.0,95,0.01,,,0.02,WUHU216DAVISVP2,2013-03-26 10:50:00,
2013-03-26 06:55:00,33.0,31.7,29.76,WSW,238,0.0,3.0,95,0.01,,,0.02,WUHU216DAVISVP2,2013-03-26 10:55:00,
2013-03-26 07:00:00,33.0,31.7,29.77,WSW,238,0.0,3.0,95,0.01,,,0.02,WUHU216DAVISVP2,2013-03-26 11:00:00,
2013-03-26 07:05:00,32.9,31.6,29.77,WSW,238,2.0,2.0,95,0.01,,,0.02,WUHU216DAVISVP2,2013-03-26 11:05:00,
2013-03-26 07:10:00,33.1,32.0,29.77,WSW,238,0.0,3.0,96,0.00,,,0.02,WUHU216DAVISVP2,2013-03-26 11:10:00,
2013-03-26 07:15:00,33.1,32.0,29.77,WSW,238,0.0,3.0,96,0.00,,,0.02,WUHU216DAVISVP2,2013-03-26 11:15:00,
2013-03-26 07:20:00,33.2,32.1,29.78,WSW,238,1.0,3.0,96,0.00,,,0.02,WUHU216DAVISVP2,2013-03-26 11:20:00,
2013-03-26 07:25:00,33.3,32.3,29.78,WSW,247,2.0,3.0,96,0.00,,,0.02,WUHU216DAVISVP2,2013-03-26 11:25:00,
2013-03-26 07:30:00,33.3,32.2,29.78,WSW,239,1.0,3.0,96,0.00,,,0.02,WUHU216DAVISVP2,2013-03-26 11:30:00,
2013-03-26 07:35:00,33.5,32.5,29.78,SW,228,0.0,3.0,96,0.00,,,0.02,WUHU216DAVISVP2,2013-03-26 11:35:00,
2013-03-26 07:40:00,33.5,32.2,29.78,SW,228,1.0,3.0,95,0.00,,,0.02,WUHU216DAVISVP2,2013-03-26 11:40:00,
2013-03-26 07:45:00,33.6,32.6,29.78,SW,228,0.0,3.0,96,0.00,,,0.02,WUHU216DAVISVP2,2013-03-26 11:45:00,
2013-03-26 07:50:00,33.7,32.7,29.78,SW,228,2.0,4.0,96,0.00,,,0.02,WUHU216DAVISVP2,2013-03-26 11:50:00,
2013-03-26 07:55:00,33.8,32.8,29.78,SW,227,1.0,4.0,96,0.00,,,0.02,WUHU216DAVISVP2,2013-03-26 11:55:00,
2013-03-26 08:00:00,34.0,32.7,29.78,SW,227,2.0,4.0,95,0.00,,,0.02,WUHU216DAVISVP2,2013-03-26 12:00:00,
2013-03-26 08:05:00,34.2,33.1,29.78,SW,222,1.0,4.0,96,0.00,,,0.02,WUHU216DAVISVP2,2013-03-26 12:05:00,
2013-03-26 08:10:00,34.4,33.1,29.79,WNW,303,0.0,4.0,95,0.00,,,0.02,WUHU216DAVISVP2,2013-03-26 12:10:00,
2013-03-26 08:15:00,34.6,33.3,29.79,West,276,1.0,4.0,95,0.00,,,0.02,WUHU216DAVISVP2,2013-03-26 12:15:00,
2013-03-26 08:20:00,34.8,33.8,29.79,WSW,257,2.0,4.0,96,0.00,,,0.02,WUHU216DAVISVP2,2013-03-26 12:20:00,
2013-03-26 08:25:00,35.1,33.8,29.79,WSW,251,0.0,4.0,95,0.00,,,0.02,WUHU216DAVISVP2,2013-03-26 12:25:00,
2013-03-26 08:30:00,35.3,34.0,29.79,West,259,1.0,5.0,95,0.00,,,0.02,WUHU216DAVISVP2,2013-03-26 12:30:00,
2013-03-26 08:35:00,35.7,34.4,29.79,West,281,1.0,5.0,95,0.00,,,0.02,WUHU216DAVISVP2,2013-03-26 12:35:00,
2013-03-26 08:40:00,35.9,34.3,29.80,WSW,239,1.0,5.0,94,0.00,,,0.02,WUHU216DAVISVP2,2013-03-26 12:40:00,
2013-03-26 08:45:00,36.2,34.6,29.80,WSW,258,2.0,5.0,94,0.00,,,0.02,WUHU216DAVISVP2,2013-03-26 12:45:00,
2013-03-26 08:50:00,36.6,34.7,29.80,West,268,1.0,4.0,93,0.00,,,0.02,WUHU216DAVISVP2,2013-03-26 12:50:00,
2013-03-26 08:55:00,36.9,35.1,29.80,NNW,343,1.0,4.0,93,0.00,,,0.02,WUHU216DAVISVP2,2013-03-26 12:55:00,
2013-03-26 09:00:00,37.2,35.1,29.80,SW,233,2.0,4.0,92,0.00,,,0.02,WUHU216DAVISVP2,2013-03-26 13:00:00,
2013-03-26 09:05:00,37.6,35.2,29.80,NNE,12,2.0,5.0,91,0.00,,,0.02,WUHU216DAVISVP2,2013-03-26 13:05:00,
2013-03-26 09:10:00,37.9,35.2,29.80,WNW,288,2.0,6.0,90,0.00,,,0.02,WUHU216DAVISVP2,2013-03-26 13:10:00,
2013-03-26 09:15:00,38.2,35.2,29.80,WNW,284,3.0,6.0,89,0.00,,,0.02,WUHU216DAVISVP2,2013-03-26 13:15:00,
2013-03-26 09:20:00,38.4,35.4,29.80,NNW,335,2.0,6.0,89,0.00,,,0.02,WUHU216DAVISVP2,2013-03-26 13:20:00,
2013-03-26 09:25:00,38.6,35.0,29.80,NW,307,4.0,9.0,87,0.01,,,0.03,WUHU216DAVISVP2,2013-03-26 13:25:00,
2013-03-26 09:30:00,38.9,35.3,29.80,NNW,339,2.0,9.0,87,0.01,,,0.03,WUHU216DAVISVP2,2013-03-26 13:30:00,
2013-03-26 09:35:00,39.2,35.6,29.80,NW,314,7.0,9.0,87,0.01,,,0.03,WUHU216DAVISVP2,2013-03-26 13:35:00,
2013-03-26 09:40:00,39.7,36.1,29.80,NW,323,4.0,9.0,87,0.01,,,0.03,WUHU216DAVISVP2,2013-03-26 13:40:00,
2013-03-26 09:45:00,39.8,35.6,29.80,WNW,282,2.0,8.0,85,0.01,,,0.03,WUHU216DAVISVP2,2013-03-26 13:45:00,
2013-03-26 09:50:00,40.2,36.0,29.80,WNW,290,3.0,7.0,85,0.01,,,0.03,WUHU216DAVISVP2,2013-03-26 13:50:00,
2013-03-26 09:55:00,40.5,36.3,29.81,WNW,291,4.0,7.0,85,0.01,,,0.03,WUHU216DAVISVP2,2013-03-26 13:55:00,
2013-03-26 10:01:00,40.6,35.8,29.81,WNW,299,3.0,10.0,83,0.01,,,0.03,WUHU216DAVISVP2,2013-03-26 14:01:00,
2013-03-26 10:06:00,41.1,36.6,29.81,WNW,289,5.0,10.0,84,0.01,,,0.03,WUHU216DAVISVP2,2013-03-26 14:06:00,
2013-03-26 10:11:00,41.3,36.2,29.81,NW,308,6.0,10.0,82,0.01,,,0.03,WUHU216DAVISVP2,2013-03-26 14:11:00,
2013-03-26 10:16:00,41.6,36.2,29.81,NW,313,1.0,10.0,81,0.01,,,0.03,WUHU216DAVISVP2,2013-03-26 14:16:00,
2013-03-26 10:21:00,42.3,36.6,29.81,West,268,3.0,8.0,80,0.01,,,0.03,WUHU216DAVISVP2,2013-03-26 14:21:00,
2013-03-26 10:26:00,42.4,36.1,29.81,West,281,2.0,8.0,78,0.00,,,0.03,WUHU216DAVISVP2,2013-03-26 14:26:00,
2013-03-26 10:32:00,42.6,36.3,29.81,North,359,1.0,7.0,78,0.00,,,0.03,WUHU216DAVISVP2,2013-03-26 14:32:00,
2013-03-26 10:37:00,42.8,36.5,29.81,West,272,0.0,7.0,78,0.00,,,0.03,WUHU216DAVISVP2,2013-03-26 14:37:00,
2013-03-26 10:42:00,43.4,37.0,29.81,West,269,3.0,7.0,78,0.00,,,0.03,WUHU216DAVISVP2,2013-03-26 14:42:00,
2013-03-26 10:47:00,43.4,37.0,29.81,SW,235,3.0,8.0,78,0.00,,,0.03,WUHU216DAVISVP2,2013-03-26 14:47:00,
2013-03-26 10:52:00,43.5,35.8,29.81,WNW,297,2.0,8.0,74,0.00,,,0.03,WUHU216DAVISVP2,2013-03-26 14:52:00,
2013-03-26 10:57:00,44.0,36.6,29.81,WNW,289,3.0,11.0,75,0.00,,,0.03,WUHU216DAVISVP2,2013-03-26 14:57:00,
2013-03-26 11:02:00,44.5,35.8,29.81,West,270,4.0,11.0,71,0.00,,,0.03,WUHU216DAVISVP2,2013-03-26 15:02:00,
2013-03-26 11:07:00,44.2,35.1,29.81,West,269,5.0,11.0,70,0.00,,,0.03,WUHU216DAVISVP2,2013-03-26 15:07:00,
2013-03-26 11:12:00,44.0,35.3,29.81,NNE,16,4.0,11.0,71,0.00,,,0.03,WUHU216DAVISVP2,2013-03-26 15:12:00,
2013-03-26 11:17:00,44.4,35.3,29.81,WNW,297,5.0,10.0,70,0.00,,,0.03,WUHU216DAVISVP2,2013-03-26 15:17:00,
2013-03-26 11:22:00,44.4,35.0,29.82,NW,314,7.0,10.0,69,0.00,,,0.03,WUHU216DAVISVP2,2013-03-26 15:22:00,
2013-03-26 11:27:00,44.7,36.0,29.81,West,281,2.0,10.0,71,0.00,,,0.03,WUHU216DAVISVP2,2013-03-26 15:27:00,
2013-03-26 11:32:00,45.3,35.8,29.82,West,269,4.0,10.0,69,0.00,,,0.03,WUHU216DAVISVP2,2013-03-26 15:32:00,
2013-03-26 11:37:00,45.6,35.7,29.82,WNW,289,6.0,9.0,68,0.00,,,0.03,WUHU216DAVISVP2,2013-03-26 15:37:00,
2013-03-26 11:42:00,45.7,36.2,29.82,WNW,297,4.0,9.0,69,0.00,,,0.03,WUHU216DAVISVP2,2013-03-26 15:42:00,
2013-03-26 11:47:00,46.0,34.6,29.82,WNW,296,9.0,12.0,64,0.00,,,0.03,WUHU216DAVISVP2,2013-03-26 15:47:00,
2013-03-26 11:52:00,45.7,34.7,29.82,WNW,294,10.0,12.0,65,0.00,,,0.03,WUHU216DAVISVP2,2013-03-26 15:52:00,
2013-03-26 11:57:00,45.6,34.2,29.82,WNW,301,4.0,12.0,64,0.00,,,0.03,WUHU216DAVISVP2,2013-03-26 15:57:00,
2013-03-26 12:02:00,46.1,34.3,29.82,NW,314,8.0,12.0,63,0.00,,,0.03,WUHU216DAVISVP2,2013-03-26 16:02:00,
2013-03-26 12:07:00,46.3,34.9,29.82,NW,312,4.0,10.0,64,0.00,,,0.03,WUHU216DAVISVP2,2013-03-26 16:07:00,
2013-03-26 12:12:00,46.6,34.8,29.82,NW,322,6.0,10.0,63,0.00,,,0.03,WUHU216DAVISVP2,2013-03-26 16:12:00,
2013-03-26 12:17:00,46.9,34.6,29.82,NW,321,4.0,10.0,62,0.00,,,0.03,WUHU216DAVISVP2,2013-03-26 16:17:00,
2013-03-26 12:22:00,47.2,34.5,29.82,North,4,7.0,10.0,61,0.01,,,0.04,WUHU216DAVISVP2,2013-03-26 16:22:00,
2013-03-26 12:27:00,47.2,34.5,29.82,North,359,1.0,9.0,61,0.01,,,0.04,WUHU216DAVISVP2,2013-03-26 16:27:00,
2013-03-26 12:32:00,47.8,34.7,29.82,West,261,3.0,9.0,60,0.01,,,0.04,WUHU216DAVISVP2,2013-03-26 16:32:00,
2013-03-26 12:37:00,48.0,34.0,29.82,West,270,4.0,10.0,58,0.01,,,0.04,WUHU216DAVISVP2,2013-03-26 16:37:00,
2013-03-26 12:42:00,47.6,34.0,29.82,NNW,344,9.0,10.0,59,0.01,,,0.04,WUHU216DAVISVP2,2013-03-26 16:42:00,
2013-03-26 12:47:00,47.6,34.0,29.82,West,280,3.0,10.0,59,0.01,,,0.04,WUHU216DAVISVP2,2013-03-26 16:47:00,
2013-03-26 12:52:00,47.6,33.2,29.82,WNW,292,3.0,11.0,57,0.01,,,0.04,WUHU216DAVISVP2,2013-03-26 16:52:00,
2013-03-26 12:57:00,48.2,34.6,29.82,WSW,241,4.0,11.0,59,0.01,,,0.04,WUHU216DAVISVP2,2013-03-26 16:57:00,
2013-03-26 13:02:00,48.2,33.3,29.82,NNW,333,6.0,12.0,56,0.01,,,0.04,WUHU216DAVISVP2,2013-03-26 17:02:00,
2013-03-26 13:07:00,48.1,33.2,29.82,West,280,6.0,12.0,56,0.01,,,0.04,WUHU216DAVISVP2,2013-03-26 17:07:00,
2013-03-26 13:12:00,48.5,32.6,29.82,WNW,303,4.0,12.0,54,0.01,,,0.04,WUHU216DAVISVP2,2013-03-26 17:12:00,
2013-03-26 13:17:00,49.3,33.4,29.82,West,274,6.0,12.0,54,0.01,,,0.04,WUHU216DAVISVP2,2013-03-26 17:17:00,
2013-03-26 13:22:00,48.9,33.5,29.82,WSW,258,2.0,12.0,55,0.00,,,0.04,WUHU216DAVISVP2,2013-03-26 17:22:00,
2013-03-26 13:27:00,49.8,32.9,29.82,West,274,4.0,12.0,52,0.00,,,0.04,WUHU216DAVISVP2,2013-03-26 17:27:00,
2013-03-26 13:32:00,50.2,33.2,29.82,NW,322,4.0,12.0,52,0.00,,,0.04,WUHU216DAVISVP2,2013-03-26 17:32:00,
2013-03-26 13:37:00,49.9,33.0,29.81,SSW,212,2.0,11.0,52,0.00,,,0.04,WUHU216DAVISVP2,2013-03-26 17:37:00,
2013-03-26 13:42:00,49.3,32.9,29.82,WNW,294,3.0,11.0,53,0.00,,,0.04,WUHU216DAVISVP2,2013-03-26 17:42:00,
2013-03-26 13:47:00,48.8,31.9,29.81,WNW,287,4.0,9.0,52,0.00,,,0.04,WUHU216DAVISVP2,2013-03-26 17:47:00,
2013-03-26 13:52:00,48.5,32.2,29.82,West,262,4.0,8.0,53,0.00,,,0.04,WUHU216DAVISVP2,2013-03-26 17:52:00,
2013-03-26 13:57:00,48.1,31.8,29.82,WNW,288,3.0,8.0,53,0.00,,,0.04,WUHU216DAVISVP2,2013-03-26 17:57:00,
2013-03-26 14:02:00,48.1,31.3,29.82,NW,310,6.0,8.0,52,0.00,,,0.04,WUHU216DAVISVP2,2013-03-26 18:02:00,
2013-03-26 14:07:00,47.9,31.6,29.82,WNW,288,3.0,8.0,53,0.00,,,0.04,WUHU216DAVISVP2,2013-03-26 18:07:00,
2013-03-26 14:12:00,47.9,31.1,29.82,NW,304,1.0,8.0,52,0.01,,,0.05,WUHU216DAVISVP2,2013-03-26 18:12:00,
2013-03-26 14:17:00,48.2,31.9,29.82,WSW,237,2.0,8.0,53,0.01,,,0.05,WUHU216DAVISVP2,2013-03-26 18:17:00,
2013-03-26 14:22:00,48.5,32.2,29.82,WNW,295,6.0,10.0,53,0.01,,,0.05,WUHU216DAVISVP2,2013-03-26 18:22:00,
2013-03-26 14:27:00,48.2,30.9,29.82,SW,220,1.0,10.0,51,0.01,,,0.05,WUHU216DAVISVP2,2013-03-26 18:27:00,
2013-03-26 14:32:00,48.6,31.3,29.82,West,278,0.0,10.0,51,0.01,,,0.05,WUHU216DAVISVP2,2013-03-26 18:32:00,
2013-03-26 14:37:00,49.0,31.6,29.82,WSW,256,3.0,10.0,51,0.01,,,0.05,WUHU216DAVISVP2,2013-03-26 18:37:00,
2013-03-26 14:42:00,48.9,31.5,29.81,WSW,246,1.0,8.0,51,0.01,,,0.05,WUHU216DAVISVP2,2013-03-26 18:42:00,
2013-03-26 14:47:00,48.6,31.3,29.82,WNW,284,2.0,8.0,51,0.01,,,0.05,WUHU216DAVISVP2,2013-03-26 18:47:00,
2013-03-26 14:52:00,48.2,30.4,29.82,WNW,293,3.0,8.0,50,0.01,,,0.05,WUHU216DAVISVP2,2013-03-26 18:52:00,
2013-03-26 14:57:00,47.8,30.5,29.82,NW,320,6.0,8.0,51,0.01,,,0.05,WUHU216DAVISVP2,2013-03-26 18:57:00,
2013-03-26 15:03:00,47.7,29.9,29.82,WNW,289,1.0,8.0,50,0.01,,,0.05,WUHU216DAVISVP2,2013-03-26 19:03:00,
2013-03-26 15:08:00,47.7,29.4,29.82,West,273,3.0,10.0,49,0.01,,,0.05,WUHU216DAVISVP2,2013-03-26 19:08:00,
2013-03-26 15:13:00,47.8,29.5,29.81,NNW,332,1.0,10.0,49,0.00,,,0.05,WUHU216DAVISVP2,2013-03-26 19:13:00,
2013-03-26 15:18:00,47.9,30.6,29.81,West,274,2.0,10.0,51,0.00,,,0.05,WUHU216DAVISVP2,2013-03-26 19:18:00,
2013-03-26 15:23:00,48.2,29.4,29.81,WNW,286,0.0,10.0,48,0.00,,,0.05,WUHU216DAVISVP2,2013-03-26 19:23:00,
2013-03-26 15:28:00,48.3,30.5,29.81,NNW,346,1.0,5.0,50,0.00,,,0.05,WUHU216DAVISVP2,2013-03-26 19:28:00,
2013-03-26 15:33:00,48.6,30.2,29.81,WNW,297,1.0,4.0,49,0.00,,,0.05,WUHU216DAVISVP2,2013-03-26 19:33:00,
2013-03-26 15:38:00,49.0,30.6,29.81,WSW,241,3.0,5.0,49,0.00,,,0.05,WUHU216DAVISVP2,2013-03-26 19:38:00,
2013-03-26 15:43:00,49.1,29.7,29.81,WNW,293,3.0,5.0,47,0.00,,,0.05,WUHU216DAVISVP2,2013-03-26 19:43:00,
2013-03-26 15:48:00,48.8,28.8,29.81,West,277,2.0,7.0,46,0.00,,,0.05,WUHU216DAVISVP2,2013-03-26 19:48:00,
2013-03-26 15:53:00,48.7,29.3,29.81,North,359,1.0,7.0,47,0.00,,,0.05,WUHU216DAVISVP2,2013-03-26 19:53:00,
2013-03-26 15:58:00,48.6,29.7,29.81,West,279,0.0,7.0,48,0.00,,,0.05,WUHU216DAVISVP2,2013-03-26 19:58:00,
2013-03-26 16:03:00,48.6,30.2,29.81,WNW,282,4.0,7.0,49,0.00,,,0.05,WUHU216DAVISVP2,2013-03-26 20:03:00,
2013-03-26 16:08:00,48.5,28.6,29.81,WNW,300,1.0,6.0,46,0.00,,,0.05,WUHU216DAVISVP2,2013-03-26 20:08:00,
2013-03-26 16:13:00,48.9,29.5,29.81,West,279,4.0,6.0,47,0.00,,,0.05,WUHU216DAVISVP2,2013-03-26 20:13:00,
2013-03-26 16:18:00,49.1,28.6,29.81,NW,312,1.0,6.0,45,0.00,,,0.05,WUHU216DAVISVP2,2013-03-26 20:18:00,
2013-03-26 16:23:00,49.3,28.7,29.81,WNW,301,3.0,6.0,45,0.00,,,0.05,WUHU216DAVISVP2,2013-03-26 20:23:00,
2013-03-26 16:28:00,49.0,27.9,29.81,NNE,19,6.0,8.0,44,0.00,,,0.05,WUHU216DAVISVP2,2013-03-26 20:28:00,
2013-03-26 16:33:00,48.7,28.7,29.81,WNW,285,2.0,8.0,46,0.00,,,0.05,WUHU216DAVISVP2,2013-03-26 20:33:00,
2013-03-26 16:38:00,48.5,28.0,29.81,NW,317,2.0,8.0,45,0.00,,,0.05,WUHU216DAVISVP2,2013-03-26 20:38:00,
2013-03-26 16:43:00,48.3,28.9,29.81,West,276,3.0,8.0,47,0.00,,,0.05,WUHU216DAVISVP2,2013-03-26 20:43:00,
2013-03-26 16:48:00,48.4,29.0,29.81,WSW,253,3.0,8.0,47,0.00,,,0.05,WUHU216DAVISVP2,2013-03-26 20:48:00,
2013-03-26 16:53:00,48.2,28.3,29.82,North,350,6.0,10.0,46,0.00,,,0.05,WUHU216DAVISVP2,2013-03-26 20:53:00,
2013-03-26 16:58:00,48.6,29.2,29.82,WNW,298,4.0,10.0,47,0.00,,,0.05,WUHU216DAVISVP2,2013-03-26 20:58:00,
2013-03-26 17:03:00,48.8,28.3,29.82,WNW,287,1.0,10.0,45,0.00,,,0.05,WUHU216DAVISVP2,2013-03-26 21:03:00,
2013-03-26 17:08:00,48.6,28.6,29.82,SW,224,1.0,10.0,46,0.00,,,0.05,WUHU216DAVISVP2,2013-03-26 21:08:00,
2013-03-26 17:13:00,48.7,28.2,29.82,NW,310,1.0,9.0,45,0.00,,,0.05,WUHU216DAVISVP2,2013-03-26 21:13:00,
2013-03-26 17:18:00,48.8,29.4,29.82,NW,322,1.0,9.0,47,0.00,,,0.05,WUHU216DAVISVP2,2013-03-26 21:18:00,
2013-03-26 17:23:00,48.8,28.3,29.82,WNW,294,3.0,5.0,45,0.00,,,0.05,WUHU216DAVISVP2,2013-03-26 21:23:00,
2013-03-26 17:28:00,48.5,28.0,29.82,WNW,295,2.0,5.0,45,0.00,,,0.05,WUHU216DAVISVP2,2013-03-26 21:28:00,
2013-03-26 17:33:00,48.4,27.9,29.82,WNW,296,0.0,8.0,45,0.00,,,0.05,WUHU216DAVISVP2,2013-03-26 21:33:00,
2013-03-26 17:38:00,48.4,29.0,29.82,NW,311,2.0,8.0,47,0.00,,,0.05,WUHU216DAVISVP2,2013-03-26 21:38:00,
2013-03-26 17:43:00,48.5,29.1,29.82,WNW,293,2.0,8.0,47,0.00,,,0.05,WUHU216DAVISVP2,2013-03-26 21:43:00,
2013-03-26 17:48:00,48.8,30.4,29.83,NW,314,1.0,8.0,49,0.00,,,0.05,WUHU216DAVISVP2,2013-03-26 21:48:00,
2013-03-26 17:53:00,49.5,29.5,29.83,SW,230,1.0,8.0,46,0.00,,,0.05,WUHU216DAVISVP2,2013-03-26 21:53:00,
2013-03-26 17:58:00,49.9,29.3,29.83,SW,222,3.0,7.0,45,0.00,,,0.05,WUHU216DAVISVP2,2013-03-26 21:58:00,
2013-03-26 18:03:00,49.9,29.3,29.83,West,267,1.0,7.0,45,0.00,,,0.05,WUHU216DAVISVP2,2013-03-26 22:03:00,
2013-03-26 18:08:00,50.0,28.8,29.83,WSW,244,0.0,7.0,44,0.00,,,0.05,WUHU216DAVISVP2,2013-03-26 22:08:00,
2013-03-26 18:13:00,50.1,29.5,29.83,SW,224,2.0,6.0,45,0.00,,,0.05,WUHU216DAVISVP2,2013-03-26 22:13:00,
2013-03-26 18:18:00,50.2,28.4,29.83,SW,235,4.0,6.0,43,0.00,,,0.05,WUHU216DAVISVP2,2013-03-26 22:18:00,
2013-03-26 18:23:00,50.1,28.9,29.83,WSW,243,3.0,6.0,44,0.00,,,0.05,WUHU216DAVISVP2,2013-03-26 22:23:00,
2013-03-26 18:28:00,49.9,28.7,29.83,WSW,244,0.0,6.0,44,0.00,,,0.05,WUHU216DAVISVP2,2013-03-26 22:28:00,
2013-03-26 18:33:00,49.5,28.9,29.83,West,261,2.0,6.0,45,0.00,,,0.05,WUHU216DAVISVP2,2013-03-26 22:33:00,
2013-03-26 18:38:00,49.2,28.6,29.84,WSW,239,3.0,5.0,45,0.00,,,0.05,WUHU216DAVISVP2,2013-03-26 22:38:00,
2013-03-26 18:43:00,49.0,29.0,29.84,SW,219,2.0,4.0,46,0.00,,,0.05,WUHU216DAVISVP2,2013-03-26 22:43:00,
2013-03-26 18:48:00,48.8,29.4,29.84,SW,233,2.0,4.0,47,0.00,,,0.05,WUHU216DAVISVP2,2013-03-26 22:48:00,
2013-03-26 18:53:00,48.7,28.7,29.84,SW,233,1.0,4.0,46,0.01,,,0.06,WUHU216DAVISVP2,2013-03-26 22:53:00,
2013-03-26 18:58:00,48.5,29.6,29.84,SSW,206,3.0,4.0,48,0.01,,,0.06,WUHU216DAVISVP2,2013-03-26 22:58:00,
2013-03-26 19:03:00,48.2,29.9,29.85,SSW,206,0.0,3.0,49,0.01,,,0.06,WUHU216DAVISVP2,2013-03-26 23:03:00,
2013-03-26 19:08:00,47.9,30.1,29.85,SSW,206,2.0,3.0,50,0.01,,,0.06,WUHU216DAVISVP2,2013-03-26 23:08:00,
2013-03-26 19:13:00,47.8,30.5,29.85,SSW,206,1.0,3.0,51,0.01,,,0.06,WUHU216DAVISVP2,2013-03-26 23:13:00,
2013-03-26 19:18:00,47.7,30.4,29.85,SSW,206,2.0,3.0,51,0.01,,,0.06,WUHU216DAVISVP2,2013-03-26 23:18:00,
2013-03-26 19:23:00,47.6,29.3,29.86,WSW,237,0.0,4.0,49,0.01,,,0.06,WUHU216DAVISVP2,2013-03-26 23:23:00,
2013-03-26 19:28:00,47.7,29.4,29.86,West,277,3.0,5.0,49,0.01,,,0.06,WUHU216DAVISVP2,2013-03-26 23:28:00,
2013-03-26 19:33:00,47.7,30.4,29.86,WSW,243,4.0,5.0,51,0.01,,,0.06,WUHU216DAVISVP2,2013-03-26 23:33:00,
2013-03-26 19:38:00,47.7,30.4,29.86,WSW,244,3.0,7.0,51,0.01,,,0.06,WUHU216DAVISVP2,2013-03-26 23:38:00,
2013-03-26 19:43:00,47.8,31.5,29.87,NW,324,3.0,8.0,53,0.01,,,0.06,WUHU216DAVISVP2,2013-03-26 23:43:00,
2013-03-26 19:48:00,47.7,31.4,29.87,West,259,3.0,8.0,53,0.01,,,0.06,WUHU216DAVISVP2,2013-03-26 23:48:00,
2013-03-26 19:53:00,47.7,31.4,29.87,West,281,3.0,8.0,53,0.00,,,0.06,WUHU216DAVISVP2,2013-03-26 23:53:00,
2013-03-26 19:58:00,47.6,31.3,29.88,West,266,1.0,8.0,53,0.00,,,0.06,WUHU216DAVISVP2,2013-03-26 23:58:00,
2013-03-26 20:03:00,47.6,31.8,29.88,WNW,291,1.0,6.0,54,0.00,,,0.06,WUHU216DAVISVP2,2013-03-27 00:03:00,
2013-03-26 20:08:00,47.5,32.1,29.88,NNW,342,2.0,6.0,55,0.00,,,0.06,WUHU216DAVISVP2,2013-03-27 00:08:00,
2013-03-26 20:13:00,47.4,32.1,29.88,WSW,256,2.0,6.0,55,0.00,,,0.06,WUHU216DAVISVP2,2013-03-27 00:13:00,
2013-03-26 20:18:00,47.4,32.1,29.88,WSW,247,1.0,5.0,55,0.00,,,0.06,WUHU216DAVISVP2,2013-03-27 00:18:00,
2013-03-26 20:23:00,47.3,32.0,29.88,NW,304,2.0,5.0,55,0.00,,,0.06,WUHU216DAVISVP2,2013-03-27 00:23:00,
2013-03-26 20:28:00,47.2,32.3,29.89,West,278,2.0,6.0,56,0.00,,,0.06,WUHU216DAVISVP2,2013-03-27 00:28:00,
2013-03-26 20:33:00,47.2,32.3,29.89,WNW,291,3.0,7.0,56,0.00,,,0.06,WUHU216DAVISVP2,2013-03-27 00:33:00,
2013-03-26 20:38:00,47.2,32.3,29.89,WNW,282,2.0,7.0,56,0.00,,,0.06,WUHU216DAVISVP2,2013-03-27 00:38:00,
2013-03-26 20:43:00,47.2,32.3,29.89,West,280,0.0,7.0,56,0.00,,,0.06,WUHU216DAVISVP2,2013-03-27 00:43:00,
2013-03-26 20:48:00,47.1,32.6,29.89,West,280,0.0,7.0,57,0.00,,,0.06,WUHU216DAVISVP2,2013-03-27 00:48:00,
2013-03-26 20:53:00,47.1,33.1,29.89,West,280,0.0,6.0,58,0.00,,,0.06,WUHU216DAVISVP2,2013-03-27 00:53:00,
2013-03-26 20:58:00,46.9,32.9,29.89,WSW,253,2.0,4.0,58,0.00,,,0.06,WUHU216DAVISVP2,2013-03-27 00:58:00,
2013-03-26 21:03:00,46.8,32.4,29.89,NW,307,3.0,3.0,57,0.00,,,0.06,WUHU216DAVISVP2,2013-03-27 01:03:00,
2013-03-26 21:08:00,46.6,32.2,29.89,WSW,244,0.0,3.0,57,0.00,,,0.06,WUHU216DAVISVP2,2013-03-27 01:08:00,
2013-03-26 21:13:00,46.5,32.1,29.89,NW,324,1.0,3.0,57,0.00,,,0.06,WUHU216DAVISVP2,2013-03-27 01:13:00,
2013-03-26 21:18:00,46.3,31.9,29.90,SW,236,0.0,3.0,57,0.00,,,0.06,WUHU216DAVISVP2,2013-03-27 01:18:00,
2013-03-26 21:23:00,46.2,31.9,29.90,NW,308,1.0,4.0,57,0.00,,,0.06,WUHU216DAVISVP2,2013-03-27 01:23:00,
2013-03-26 21:28:00,46.0,32.1,29.90,WNW,299,0.0,4.0,58,0.00,,,0.06,WUHU216DAVISVP2,2013-03-27 01:28:00,
2013-03-26 21:34:00,45.9,32.0,29.90,WNW,298,0.0,4.0,58,0.00,,,0.06,WUHU216DAVISVP2,2013-03-27 01:34:00,
2013-03-26 21:39:00,45.8,31.9,29.91,West,265,2.0,4.0,58,0.00,,,0.06,WUHU216DAVISVP2,2013-03-27 01:39:00,
2013-03-26 21:44:00,45.7,31.8,29.91,WSW,247,1.0,2.0,58,0.00,,,0.06,WUHU216DAVISVP2,2013-03-27 01:44:00,
2013-03-26 21:49:00,45.7,31.8,29.91,WNW,294,1.0,3.0,58,0.00,,,0.06,WUHU216DAVISVP2,2013-03-27 01:49:00,
2013-03-26 21:54:00,45.7,32.3,29.91,NW,308,0.0,3.0,59,0.00,,,0.06,WUHU216DAVISVP2,2013-03-27 01:54:00,
2013-03-26 21:59:00,45.8,32.3,29.91,WNW,285,2.0,6.0,59,0.00,,,0.06,WUHU216DAVISVP2,2013-03-27 01:59:00,
2013-03-26 22:04:00,45.9,31.6,29.91,WNW,294,1.0,6.0,57,0.00,,,0.06,WUHU216DAVISVP2,2013-03-27 02:04:00,
2013-03-26 22:09:00,46.1,31.8,29.92,WNW,302,0.0,6.0,57,0.00,,,0.06,WUHU216DAVISVP2,2013-03-27 02:09:00,
2013-03-26 22:14:00,46.1,31.3,29.92,SW,234,1.0,7.0,56,0.00,,,0.06,WUHU216DAVISVP2,2013-03-27 02:14:00,
2013-03-26 22:19:00,46.2,31.4,29.92,NW,324,0.0,7.0,56,0.00,,,0.06,WUHU216DAVISVP2,2013-03-27 02:19:00,
2013-03-26 22:24:00,46.2,31.4,29.92,WNW,294,2.0,7.0,56,0.00,,,0.06,WUHU216DAVISVP2,2013-03-27 02:24:00,
2013-03-26 22:29:00,46.1,31.3,29.92,WNW,303,1.0,7.0,56,0.00,,,0.06,WUHU216DAVISVP2,2013-03-27 02:29:00,
2013-03-26 22:34:00,46.1,31.8,29.92,West,264,1.0,6.0,57,0.00,,,0.06,WUHU216DAVISVP2,2013-03-27 02:34:00,
2013-03-26 22:39:00,46.0,31.2,29.92,WSW,255,6.0,6.0,56,0.00,,,0.06,WUHU216DAVISVP2,2013-03-27 02:39:00,
2013-03-26 22:44:00,46.0,31.7,29.92,NW,310,0.0,6.0,57,0.00,,,0.06,WUHU216DAVISVP2,2013-03-27 02:44:00,
2013-03-26 22:49:00,45.9,31.1,29.92,NW,318,3.0,6.0,56,0.00,,,0.06,WUHU216DAVISVP2,2013-03-27 02:49:00,
2013-03-26 22:54:00,45.7,30.9,29.92,WNW,293,3.0,6.0,56,0.00,,,0.06,WUHU216DAVISVP2,2013-03-27 02:54:00,
2013-03-26 22:59:00,45.7,31.4,29.92,NW,317,0.0,7.0,57,0.01,,,0.07,WUHU216DAVISVP2,2013-03-27 02:59:00,
2013-03-26 23:04:00,45.6,31.3,29.92,WNW,301,0.0,7.0,57,0.01,,,0.07,WUHU216DAVISVP2,2013-03-27 03:04:00,
2013-03-26 23:09:00,45.5,31.2,29.92,WNW,303,1.0,7.0,57,0.01,,,0.07,WUHU216DAVISVP2,2013-03-27 03:09:00,
2013-03-26 23:14:00,45.5,31.2,29.92,WNW,284,0.0,7.0,57,0.01,,,0.07,WUHU216DAVISVP2,2013-03-27 03:14:00,
2013-03-26 23:19:00,45.3,31.4,29.92,NNW,341,2.0,5.0,58,0.01,,,0.07,WUHU216DAVISVP2,2013-03-27 03:19:00,
2013-03-26 23:24:00,45.2,30.9,29.92,WNW,300,4.0,5.0,57,0.01,,,0.07,WUHU216DAVISVP2,2013-03-27 03:24:00,
2013-03-26 23:29:00,45.1,30.8,29.92,WNW,290,1.0,5.0,57,0.01,,,0.07,WUHU216DAVISVP2,2013-03-27 03:29:00,
2013-03-26 23:34:00,45.2,30.5,29.92,West,272,3.0,7.0,56,0.01,,,0.07,WUHU216DAVISVP2,2013-03-27 03:34:00,
2013-03-26 23:39:00,45.2,30.5,29.93,WNW,284,2.0,7.0,56,0.01,,,0.07,WUHU216DAVISVP2,2013-03-27 03:39:00,
2013-03-26 23:44:00,45.1,30.4,29.93,WNW,289,2.0,7.0,56,0.01,,,0.07,WUHU216DAVISVP2,2013-03-27 03:44:00,
2013-03-26 23:49:00,45.1,30.4,29.92,WSW,237,3.0,6.0,56,0.01,,,0.07,WUHU216DAVISVP2,2013-03-27 03:49:00,
2013-03-26 23:54:00,45.0,30.3,29.93,WNW,285,0.0,7.0,56,0.01,,,0.07,WUHU216DAVISVP2,2013-03-27 03:54:00,
2013-03-26 23:59:00,45.0,30.7,29.93,West,262,0.0,7.0,57,0.00,,,0.07,WUHU216DAVISVP2,2013-03-27 03:59:00,